FW0447 Weather Reports


Display with metric or nautical units.
time (UTC)temp
F
wind
direction
speed
MPH
gust
MPH
rain 1hr
in
rain 24hr
in
rain mn
in
humidity
%
barometer
mb
20190424161541 63 319 1.0 4.0 0.00 0.00 0.00 75 1013.8
20190424160010 62 302 1.0 4.0 0.00 0.00 0.00 74 1013.6
20190424154508 62 17 1.0 4.0 0.00 0.00 0.00 74 1013.6
20190424153034 63 290 0.0 1.0 0.00 0.00 0.00 73 1013.5
20190424151503 62 300 0.0 0.0 0.00 0.00 0.00 75 1013.6
20190424150215 59 300 0.0 0.0 0.00 0.00 0.00 82 1013.4
20190424144649 58 300 0.0 0.0 0.00 0.00 0.00 83 1013.3
20190424143207 56 301 0.0 0.0 0.00 0.00 0.00 85 1013.3
20190424141636 55 301 0.0 0.0 0.00 0.00 0.00 85 1013.2
20190424140214 55 301 0.0 0.0 0.00 0.00 0.00 83 1013.1
20190424134706 54 301 0.0 1.0 0.00 0.00 0.00 88 1013.0
20190424133124 52 329 0.0 0.0 0.00 0.00 0.00 88 1012.8
20190424131640 51 329 0.0 0.0 0.00 0.00 0.00 87 1012.5
20190424130115 51 329 0.0 0.0 0.00 0.00 0.00 87 1012.4
20190424124621 51 329 0.0 0.0 0.00 0.00 0.00 86 1012.2
20190424123115 52 329 0.0 0.0 0.00 0.00 0.00 85 1012.1
20190424121610 52 329 0.0 0.0 0.00 0.00 0.00 84 1012.1
20190424120117 52 329 0.0 0.0 0.00 0.00 0.00 84 1012.1
20190424114625 52 329 0.0 0.0 0.00 0.00 0.00 82 1012.1
20190424113132 53 329 0.0 0.0 0.00 0.00 0.00 81 1012.0
20190424111550 53 329 0.0 0.0 0.00 0.00 0.00 82 1012.0
20190424110038 52 329 0.0 0.0 0.00 0.00 0.00 80 1011.9
20190424104550 52 329 0.0 0.0 0.00 0.00 0.00 81 1012.0
20190424103040 52 329 0.0 0.0 0.00 0.00 0.00 80 1012.0
20190424101553 53 329 0.0 0.0 0.00 0.00 0.00 80 1012.0
20190424100036 54 329 0.0 0.0 0.00 0.00 0.00 78 1012.1
20190424094536 55 329 0.0 0.0 0.00 0.00 0.00 79 1012.0
20190424093048 55 329 0.0 0.0 0.00 0.00 0.00 78 1012.0
20190424091545 56 329 0.0 0.0 0.00 0.00 0.00 76 1012.0
20190424090055 55 329 0.0 0.0 0.00 0.00 0.00 76 1012.1
20190424084536 55 329 0.0 0.0 0.00 0.00 0.00 68 1012.2
20190424083019 55 329 0.0 0.0 0.00 0.00 0.00 67 1012.2
20190424081532 55 329 0.0 0.0 0.00 0.00 0.00 67 1012.2
20190424080036 56 329 0.0 0.0 0.00 0.00 0.00 66 1012.2
20190424074509 57 329 0.0 0.0 0.00 0.00 0.00 63 1012.2
20190424073013 57 329 0.0 0.0 0.00 0.00 0.00 61 1012.0
20190424071813 58 329 0.0 0.0 0.00 0.00 0.00 58 1011.9
20190424070239 58 329 0.0 0.0 0.00 0.00 0.00 58 1012.0
20190424064659 59 329 0.0 0.0 0.00 0.00 0.00 56 1011.7
20190424063147 60 329 0.0 0.0 0.00 0.00 0.00 54 1011.7
20190424061615 60 329 0.0 0.0 0.00 0.00 0.00 54 1011.7
20190424060127 60 329 0.0 1.0 0.00 0.00 0.00 57 1011.5
20190424054655 61 329 0.0 0.0 0.00 0.00 0.00 56 1011.5
20190424053158 62 329 0.0 0.0 0.00 0.00 0.00 52 1011.4
20190424051642 63 329 0.0 1.0 0.00 0.00 0.00 52 1011.5
20190424050159 64 329 0.0 2.0 0.00 0.00 0.00 48 1011.5
20190424044642 65 228 0.0 3.0 0.00 0.00 0.00 47 1011.7
20190424043154 64 303 0.0 2.0 0.00 0.00 0.00 47 1011.5
20190424041626 66 262 0.0 4.0 0.00 0.00 0.00 43 1011.3
20190424040225 64 217 1.0 7.0 0.00 0.00 0.00 44 1011.2
20190424034722 61 4 0.0 1.0 0.00 0.00 0.00 64 1011.3
20190424033123 61 4 0.0 0.0 0.00 0.00 0.00 64 1011.2
20190424031642 63 4 0.0 1.0 0.00 0.00 0.00 62 1011.1
20190424030108 63 4 0.0 0.0 0.00 0.00 0.00 60 1010.9
20190424024558 64 4 0.0 1.0 0.00 0.00 0.00 58 1010.8
20190424023141 66 4 0.0 0.0 0.00 0.00 0.00 56 1010.7
20190424021653 67 6 0.0 2.0 0.00 0.00 0.00 54 1010.7
20190424020123 68 298 0.0 2.0 0.00 0.00 0.00 51 1010.7
20190424014559 70 287 0.0 4.0 0.00 0.00 0.00 43 1010.7
20190424013152 71 309 3.0 7.0 0.00 0.00 0.00 43 1009.8
20190424011617 72 302 1.0 5.0 0.00 0.00 0.00 45 1009.8
20190424010115 72 286 0.0 4.0 0.00 0.00 0.00 47 1009.7
20190424004652 72 270 1.0 3.0 0.00 0.00 0.00 47 1010.7
20190424003133 75 296 1.0 5.0 0.00 0.00 0.00 42 1010.6
20190424001628 75 293 2.0 11.0 0.00 0.00 0.00 36 1010.7
20190424000127 75 281 3.0 10.0 0.00 0.00 0.00 32 1010.8
20190423234606 75 294 3.0 9.0 0.00 0.00 0.00 43 1010.6
20190423233122 76 302 4.0 9.0 0.00 0.00 0.00 39 1010.6
20190423231607 77 293 3.0 8.0 0.00 0.00 0.00 37 1010.7
20190423230113 77 295 3.0 9.0 0.00 0.00 0.00 37 1010.8
20190423224641 78 282 2.0 6.0 0.00 0.00 0.00 41 1010.9
20190423223044 79 293 2.0 6.0 0.00 0.00 0.00 37 1011.0
20190423221626 79 307 4.0 11.0 0.00 0.00 0.00 36 1011.2
20190423220058 80 295 3.0 6.0 0.00 0.00 0.00 34 1011.4
20190423214651 79 318 5.0 8.0 0.00 0.00 0.00 38 1011.7
20190423213038 79 5 3.0 11.0 0.00 0.00 0.00 37 1011.9
20190423211527 79 294 3.0 8.0 0.00 0.00 0.00 40 1012.0
20190423210040 79 316 1.0 7.0 0.00 0.00 0.00 38 1012.2
20190423204521 78 307 3.0 7.0 0.00 0.00 0.00 39 1012.3
20190423203016 78 297 4.0 7.0 0.00 0.00 0.00 40 1012.4
20190423201525 76 311 3.0 7.0 0.00 0.00 0.00 47 1012.5
20190423200015 75 321 2.0 8.0 0.00 0.00 0.00 51 1012.6
20190423194509 73 314 4.0 7.0 0.00 0.00 0.00 56 1012.8
20190423193013 73 349 2.0 6.0 0.00 0.00 0.00 58 1012.9
20190423191509 72 280 3.0 7.0 0.00 0.00 0.00 59 1013.0
20190423190033 72 307 3.0 6.0 0.00 0.00 0.00 60 1013.1
20190423184517 72 325 3.0 6.0 0.00 0.00 0.00 60 1013.3
20190423183007 72 316 3.0 5.0 0.00 0.00 0.00 60 1013.3
20190423181503 71 302 2.0 7.0 0.00 0.00 0.00 61 1013.4
20190423180001 70 334 3.0 7.0 0.00 0.00 0.00 61 1013.4
20190423174731 69 320 3.0 6.0 0.00 0.00 0.00 59 1013.5
20190423173204 68 309 3.0 7.0 0.00 0.00 0.00 59 1013.6
20190423171716 70 296 4.0 7.0 0.00 0.00 0.00 57 1013.6
20190423170116 73 282 1.0 6.0 0.00 0.00 0.00 52 1013.5
20190423164652 75 278 0.0 2.0 0.00 0.00 0.00 43 1013.4
20190423163207 75 150 0.0 2.0 0.00 0.00 0.00 44 1013.4